createdAt,value
2018-03-26T00:18:55.483Z,38.37
2018-03-26T00:21:28.751Z,34.90
2018-03-26T00:24:01.139Z,37.17
2018-03-26T00:26:34.075Z,40.07
2018-03-26T00:45:40.429Z,34.27
2018-03-26T00:48:13.056Z,36.10
2018-03-26T00:50:45.713Z,37.70
2018-03-26T01:09:51.219Z,39.27
2018-03-26T01:12:23.969Z,35.87
2018-03-26T01:14:56.777Z,33.37
2018-03-26T01:34:04.295Z,38.37
2018-03-26T01:36:36.745Z,41.10
2018-03-26T01:39:09.203Z,37.50
2018-03-26T01:58:16.937Z,35.13
2018-03-26T02:00:49.717Z,36.43
2018-03-26T02:03:22.640Z,35.83
2018-03-26T02:05:55.313Z,35.47
2018-03-26T02:08:28.106Z,37.67
2018-03-26T02:11:00.790Z,37.57
2018-03-26T02:13:33.563Z,41.50
2018-03-26T02:16:06.989Z,42.33
2018-03-26T02:18:39.596Z,35.53
2018-03-26T02:21:13.098Z,36.37
2018-03-26T02:23:45.649Z,35.93
2018-03-26T02:26:18.925Z,35.20
2018-03-26T02:28:52.347Z,32.73
2018-03-26T02:31:25.101Z,35.50
2018-03-26T02:33:58.303Z,34.20
2018-03-26T02:36:31.098Z,34.03
2018-03-26T02:39:04.381Z,35.30
2018-03-26T02:58:08.411Z,34.57
2018-03-26T03:00:41.103Z,36.17
2018-03-26T03:03:15.351Z,37.63
2018-03-26T03:05:47.870Z,34.60
2018-03-26T03:08:20.455Z,34.87
2018-03-26T03:10:53.271Z,39.90
2018-03-26T03:30:00.259Z,35.57
2018-03-26T03:32:32.669Z,37.40
2018-03-26T03:35:05.251Z,37.77
2018-03-26T03:37:38.181Z,38.13
2018-03-26T03:40:10.903Z,36.90
2018-03-26T03:42:43.482Z,36.87
2018-03-26T03:45:16.167Z,31.73
2018-03-26T03:47:48.598Z,34.50
2018-03-26T03:50:21.185Z,34.53
2018-03-26T04:09:27.456Z,43.13
2018-03-26T04:12:00.185Z,35.63
2018-03-26T04:14:32.786Z,41.87
2018-03-26T04:33:40.077Z,42.43
2018-03-26T04:36:12.810Z,42.73
2018-03-26T04:38:46.022Z,40.77
2018-03-26T04:57:51.738Z,39.03
2018-03-26T05:00:25.446Z,36.57
2018-03-26T05:02:58.132Z,35.53
2018-03-26T05:22:01.524Z,40.33
2018-03-26T05:24:34.195Z,35.67
2018-03-26T05:27:06.958Z,37.10
2018-03-26T05:46:14.307Z,42.07
2018-03-26T05:48:47.079Z,43.93
2018-03-26T05:51:19.732Z,39.53
2018-03-26T05:53:52.651Z,48.63
2018-03-26T05:56:25.406Z,44.87
2018-03-26T05:58:58.271Z,43.47
2018-03-26T06:01:31.096Z,41.97
2018-03-26T06:04:03.940Z,37.90
2018-03-26T06:06:37.140Z,37.20
2018-03-26T06:09:10.116Z,39.23
2018-03-26T06:11:43.004Z,38.87
2018-03-26T06:14:16.305Z,38.70
2018-03-26T06:16:57.770Z,37.27
2018-03-26T06:19:30.495Z,36.07
2018-03-26T06:22:03.712Z,38.00
2018-03-26T06:24:36.725Z,40.03
2018-03-26T06:27:09.346Z,39.20
2018-03-26T06:46:15.808Z,41.07
2018-03-26T06:48:48.829Z,43.90
2018-03-26T06:51:21.650Z,40.43
2018-03-26T07:10:27.449Z,45.40
2018-03-26T07:13:00.515Z,41.43
2018-03-26T07:15:33.054Z,40.50
2018-03-26T07:37:15.773Z,43.47
2018-03-26T07:39:49.002Z,41.57
2018-03-26T07:42:21.685Z,39.10
2018-03-26T08:01:31.544Z,39.77
2018-03-26T08:04:04.228Z,39.03
2018-03-26T08:06:36.963Z,38.77
2018-03-26T08:09:09.921Z,40.13
2018-03-26T08:11:42.759Z,39.63
2018-03-26T08:14:19.202Z,36.43
2018-03-26T08:16:51.903Z,34.50
2018-03-26T08:19:24.471Z,40.90
2018-03-26T08:21:57.804Z,41.07
2018-03-26T08:41:04.233Z,38.97
2018-03-26T08:43:36.888Z,32.63
2018-03-26T08:46:09.785Z,30.33
2018-03-26T09:05:15.974Z,33.23
2018-03-26T09:07:48.747Z,31.40
2018-03-26T09:10:21.448Z,32.87
2018-03-26T09:29:27.748Z,30.33
2018-03-26T09:32:00.518Z,34.73
2018-03-26T09:34:38.840Z,25.00
2018-03-26T09:53:41.803Z,33.07
2018-03-26T09:56:14.801Z,29.10
2018-03-26T10:17:56.073Z,32.07
2018-03-26T10:20:28.609Z,33.43
2018-03-26T10:23:01.496Z,32.73
2018-03-26T10:25:34.642Z,33.37
2018-03-26T10:28:07.787Z,33.90
2018-03-26T10:30:40.375Z,33.87
2018-03-26T10:33:13.629Z,32.33
2018-03-26T10:35:46.897Z,32.80
2018-03-26T10:38:19.457Z,34.23
2018-03-26T10:40:55.961Z,34.43
2018-03-26T10:43:31.901Z,36.00
2018-03-26T10:46:04.558Z,32.60
2018-03-26T10:48:37.292Z,34.30
2018-03-26T10:51:09.912Z,32.93
2018-03-26T10:53:42.667Z,37.10
2018-03-26T10:56:15.600Z,37.23
2018-03-26T10:58:50.031Z,34.57
2018-03-26T11:01:22.553Z,35.00
2018-03-26T11:03:57.104Z,37.80
2018-03-26T11:06:29.962Z,32.90
2018-03-26T11:09:02.607Z,36.43
2018-03-26T11:11:35.462Z,41.73
2018-03-26T11:14:08.165Z,38.77
2018-03-26T11:16:41.897Z,33.37
2018-03-26T11:19:17.676Z,37.63
2018-03-26T11:21:50.602Z,39.27
2018-03-26T11:24:23.567Z,35.17
2018-03-26T11:26:56.669Z,34.40
2018-03-26T11:29:30.413Z,34.70
2018-03-26T11:32:03.479Z,35.90
2018-03-26T11:34:39.373Z,39.30
2018-03-26T11:37:11.953Z,37.33
2018-03-26T11:56:21.007Z,34.03
2018-03-26T11:58:53.671Z,40.27
2018-03-26T12:01:26.451Z,38.00
2018-03-26T12:20:30.202Z,36.70
2018-03-26T12:23:11.818Z,38.67
2018-03-26T12:25:45.313Z,36.23
2018-03-26T12:44:52.542Z,35.37
2018-03-26T12:47:29.326Z,36.03
2018-03-26T13:09:10.183Z,34.63
2018-03-26T13:11:43.068Z,33.60
2018-03-26T13:14:18.907Z,34.37
2018-03-26T13:16:52.167Z,34.87
2018-03-26T13:35:59.143Z,40.70
2018-03-26T13:38:31.918Z,37.33
2018-03-26T13:41:04.722Z,37.43
2018-03-26T14:02:48.730Z,30.43
2018-03-26T14:05:21.486Z,27.63
2018-03-26T14:24:28.938Z,33.53
2018-03-26T14:27:07.013Z,28.70
2018-03-26T14:29:39.805Z,30.47
2018-03-26T14:32:16.123Z,30.63
2018-03-26T14:35:04.123Z,30.97
2018-03-26T14:37:40.652Z,28.43
2018-03-26T14:40:13.437Z,27.43
2018-03-26T14:42:49.412Z,30.77
2018-03-26T15:01:57.747Z,22.77
2018-03-26T15:04:30.280Z,24.50
2018-03-26T15:07:02.675Z,20.30
2018-03-26T15:26:09.553Z,31.23
2018-03-26T15:28:48.088Z,28.03
2018-03-26T15:50:27.810Z,34.77
2018-03-26T15:53:00.634Z,34.07
2018-03-26T15:55:33.559Z,35.67
2018-03-26T15:58:07.987Z,33.43
2018-03-26T16:00:40.658Z,34.23
2018-03-26T16:03:17.951Z,31.23
2018-03-26T16:05:50.880Z,34.07
2018-03-26T16:08:24.634Z,38.03
2018-03-26T16:27:32.816Z,35.03
2018-03-26T16:30:06.346Z,34.43
2018-03-26T16:32:42.304Z,34.70
2018-03-26T16:51:49.879Z,32.50
2018-03-26T16:54:22.768Z,37.30
2018-03-26T16:56:57.472Z,36.33
2018-03-26T16:59:32.746Z,38.30
2018-03-26T17:02:05.832Z,34.20
2018-03-26T17:04:38.563Z,42.97
2018-03-26T17:23:45.954Z,30.07
2018-03-26T17:26:19.360Z,29.80
2018-03-26T17:28:52.295Z,30.97
2018-03-26T17:47:58.575Z,31.57
2018-03-26T17:50:31.675Z,28.10
2018-03-26T17:53:04.431Z,28.70
2018-03-26T17:55:37.813Z,28.50
2018-03-26T17:58:10.571Z,30.40
2018-03-26T18:00:43.278Z,27.47
2018-03-26T18:19:52.832Z,35.80
2018-03-26T18:22:25.623Z,36.33
2018-03-26T18:24:59.145Z,36.13
2018-03-26T18:44:07.308Z,31.60
2018-03-26T18:46:40.710Z,40.97
2018-03-26T18:49:13.512Z,38.53
2018-03-26T19:08:20.051Z,37.70
2018-03-26T19:10:53.442Z,36.57
2018-03-26T19:13:26.854Z,40.97
2018-03-26T19:32:34.093Z,46.63
2018-03-26T19:35:07.160Z,48.20
2018-03-26T19:37:40.175Z,42.07
2018-03-26T19:56:45.424Z,39.57
2018-03-26T19:59:17.984Z,40.77
2018-03-26T20:01:50.917Z,41.20
2018-03-26T20:20:55.821Z,34.87
2018-03-26T20:23:28.835Z,35.30
2018-03-26T20:26:01.745Z,38.77
2018-03-26T20:45:08.878Z,36.97
2018-03-26T20:47:41.807Z,40.43
2018-03-26T20:50:14.862Z,40.03
2018-03-26T21:09:22.458Z,42.77
2018-03-26T21:11:55.233Z,38.20
2018-03-26T21:14:28.144Z,41.00
2018-03-26T21:33:33.223Z,38.57
2018-03-26T21:36:06.299Z,37.87
2018-03-26T21:38:39.173Z,41.03
2018-03-26T21:57:48.720Z,14.67
2018-03-26T22:00:21.835Z,16.40
2018-03-26T22:02:55.416Z,13.23
2018-03-26T22:05:28.776Z,15.93
2018-03-26T22:08:01.306Z,13.53
2018-03-26T22:10:35.091Z,17.57
2018-03-26T22:13:07.761Z,13.93
2018-03-26T22:15:40.525Z,14.10
2018-03-26T22:18:14.210Z,15.07
2018-03-26T22:20:46.774Z,18.20
2018-03-26T22:23:19.760Z,19.33
2018-03-26T22:25:53.340Z,17.00
2018-03-26T22:28:26.282Z,14.37
2018-03-26T22:30:58.996Z,18.17
2018-03-26T22:33:32.263Z,16.93
2018-03-26T22:36:04.827Z,18.70
2018-03-26T22:38:37.302Z,16.70
2018-03-26T22:41:11.081Z,17.20
2018-03-26T22:43:43.884Z,19.07
2018-03-26T22:46:16.855Z,17.77
2018-03-26T22:48:50.572Z,16.90
2018-03-26T22:51:23.030Z,20.27
2018-03-26T22:53:55.610Z,17.13
2018-03-26T22:56:29.681Z,21.23
2018-03-26T22:59:02.467Z,22.67
2018-03-26T23:01:35.853Z,24.07
2018-03-26T23:04:08.804Z,21.63
2018-03-26T23:06:41.567Z,24.17
2018-03-26T23:09:14.058Z,24.10
2018-03-26T23:11:47.087Z,25.33
2018-03-26T23:14:20.078Z,22.57
2018-03-26T23:16:52.811Z,24.23
2018-03-26T23:19:25.702Z,24.97
2018-03-26T23:21:59.036Z,25.67
2018-03-26T23:24:31.999Z,28.13
2018-03-26T23:27:04.951Z,25.33
2018-03-26T23:29:37.673Z,27.77
2018-03-26T23:32:10.040Z,27.57
2018-03-26T23:34:43.186Z,29.27
2018-03-26T23:37:15.923Z,30.03
2018-03-26T23:39:48.564Z,33.43
2018-03-26T23:42:21.755Z,34.63
2018-03-26T23:44:54.536Z,27.03
2018-03-26T23:47:27.184Z,26.77
2018-03-26T23:50:00.145Z,29.37
2018-03-26T23:52:32.816Z,33.53
2018-03-26T23:55:06.507Z,33.40
2018-03-26T23:57:39.950Z,36.07
